createdAt,value
2018-12-19T00:01:26.693Z,5.69
2018-12-19T00:03:54.996Z,5.69
2018-12-19T00:06:23.355Z,5.69
2018-12-19T00:08:51.520Z,5.70
2018-12-19T00:11:19.688Z,5.66
2018-12-19T00:13:47.847Z,5.64
2018-12-19T00:16:16.013Z,5.59
2018-12-19T00:18:44.256Z,5.58
2018-12-19T00:21:12.427Z,5.57
2018-12-19T00:23:40.591Z,5.55
2018-12-19T00:26:08.784Z,5.57
2018-12-19T00:28:37.044Z,5.58
2018-12-19T00:31:05.213Z,5.61
2018-12-19T00:33:33.367Z,5.62
2018-12-19T00:36:01.579Z,5.64
2018-12-19T00:38:29.749Z,5.65
2018-12-19T00:40:57.928Z,5.68
2018-12-19T00:43:26.084Z,5.70
2018-12-19T00:45:54.263Z,5.71
2018-12-19T00:48:22.460Z,5.76
2018-12-19T00:50:50.716Z,5.80
2018-12-19T00:53:18.907Z,5.83
2018-12-19T00:55:47.179Z,5.95
2018-12-19T00:58:15.356Z,5.90
2018-12-19T01:00:43.641Z,5.90
2018-12-19T01:03:11.816Z,5.93
2018-12-19T01:05:40.088Z,5.97
2018-12-19T01:08:08.264Z,6.00
2018-12-19T01:10:36.548Z,6.06
2018-12-19T01:13:04.724Z,6.04
2018-12-19T01:15:32.879Z,6.02
2018-12-19T01:18:01.064Z,6.03
2018-12-19T01:20:29.232Z,6.04
2018-12-19T01:22:57.416Z,6.03
2018-12-19T01:25:25.575Z,6.02
2018-12-19T01:27:53.819Z,6.03
2018-12-19T01:30:22.128Z,5.89
2018-12-19T01:32:50.320Z,6.05
2018-12-19T01:35:18.490Z,6.07
2018-12-19T01:37:46.712Z,6.06
2018-12-19T01:40:14.872Z,6.07
2018-12-19T01:42:43.041Z,6.08
2018-12-19T01:45:11.248Z,6.08
2018-12-19T01:47:39.412Z,6.11
2018-12-19T01:50:07.773Z,6.14
2018-12-19T01:52:36.014Z,6.13
2018-12-19T01:55:04.368Z,6.14
2018-12-19T01:57:32.545Z,6.24
2018-12-19T02:00:00.761Z,6.13
2018-12-19T02:02:28.917Z,6.13
2018-12-19T02:04:57.084Z,6.17
2018-12-19T02:07:25.244Z,6.07
2018-12-19T02:09:53.411Z,6.12
2018-12-19T02:12:21.628Z,6.09
2018-12-19T02:14:49.891Z,6.11
2018-12-19T02:17:18.051Z,6.16
2018-12-19T02:19:46.223Z,6.19
2018-12-19T02:22:14.374Z,6.19
2018-12-19T02:24:42.820Z,6.20
2018-12-19T02:27:10.980Z,6.22
2018-12-19T02:29:39.151Z,6.23
2018-12-19T02:32:09.547Z,6.19
2018-12-19T02:34:37.836Z,6.17
2018-12-19T02:37:06.028Z,6.20
2018-12-19T02:39:36.257Z,6.17
2018-12-19T02:42:04.536Z,6.21
2018-12-19T02:44:32.718Z,6.08
2018-12-19T02:47:00.881Z,6.07
2018-12-19T02:49:29.151Z,6.08
2018-12-19T02:51:57.354Z,6.12
2018-12-19T02:54:25.717Z,6.14
2018-12-19T02:56:53.871Z,6.18
2018-12-19T02:59:22.039Z,6.18
2018-12-19T03:01:50.320Z,6.18
2018-12-19T03:04:18.504Z,6.19
2018-12-19T03:06:46.696Z,6.19
2018-12-19T03:09:14.859Z,6.17
2018-12-19T03:11:43.153Z,6.24
2018-12-19T03:14:11.312Z,6.12
2018-12-19T03:16:39.646Z,6.10
2018-12-19T03:19:07.867Z,6.13
2018-12-19T03:21:36.096Z,6.12
2018-12-19T03:24:04.347Z,6.11
2018-12-19T03:26:32.516Z,6.09
2018-12-19T03:29:00.680Z,6.16
2018-12-19T03:31:28.857Z,6.12
2018-12-19T03:33:57.031Z,5.96
2018-12-19T03:36:25.200Z,5.93
2018-12-19T03:38:53.371Z,6.02
2018-12-19T03:41:21.540Z,5.97
2018-12-19T03:43:49.843Z,5.88
2018-12-19T03:46:18.020Z,5.85
2018-12-19T03:48:51.559Z,5.93
2018-12-19T03:51:19.780Z,5.97
2018-12-19T03:53:47.953Z,5.94
2018-12-19T03:56:16.209Z,5.85
2018-12-19T03:58:44.626Z,5.82
2018-12-19T04:01:12.903Z,5.91
2018-12-19T04:03:41.079Z,5.86
2018-12-19T04:06:09.421Z,5.84
2018-12-19T04:08:37.625Z,5.85
2018-12-19T04:11:05.872Z,5.84
2018-12-19T04:13:34.079Z,5.89
2018-12-19T04:16:02.244Z,5.83
2018-12-19T04:18:30.556Z,5.84
2018-12-19T04:20:58.797Z,5.82
2018-12-19T04:23:26.970Z,5.90
2018-12-19T04:25:55.187Z,5.88
2018-12-19T04:28:23.352Z,5.83
2018-12-19T04:30:51.603Z,5.83
2018-12-19T04:33:19.789Z,5.73
2018-12-19T04:35:48.328Z,5.66
2018-12-19T04:38:16.828Z,5.58
2018-12-19T04:40:45.012Z,5.51
2018-12-19T04:43:13.200Z,5.55
2018-12-19T04:45:41.479Z,5.49
2018-12-19T04:48:09.657Z,5.56
2018-12-19T04:50:37.803Z,5.58
2018-12-19T04:53:05.991Z,5.63
2018-12-19T04:55:34.153Z,5.67
2018-12-19T04:58:02.320Z,5.69
2018-12-19T05:00:30.619Z,5.59
2018-12-19T05:02:58.809Z,5.59
2018-12-19T05:05:26.967Z,5.59
2018-12-19T05:07:55.254Z,5.61
2018-12-19T05:10:23.519Z,5.65
2018-12-19T05:12:51.703Z,5.71
2018-12-19T05:15:19.871Z,5.75
2018-12-19T05:17:48.031Z,5.72
2018-12-19T05:20:16.204Z,5.65
2018-12-19T05:22:44.355Z,5.69
2018-12-19T05:25:13.798Z,5.59
2018-12-19T05:27:42.096Z,5.59
2018-12-19T05:30:10.387Z,5.58
2018-12-19T05:32:38.547Z,5.60
2018-12-19T05:35:06.920Z,5.72
2018-12-19T05:37:35.083Z,5.70
2018-12-19T05:40:03.271Z,5.75
2018-12-19T05:42:31.428Z,5.71
2018-12-19T05:44:59.617Z,5.78
2018-12-19T05:47:27.870Z,5.71
2018-12-19T05:49:56.517Z,5.68
2018-12-19T05:52:26.423Z,5.61
2018-12-19T05:54:54.760Z,5.56
2018-12-19T05:57:22.920Z,5.53
2018-12-19T05:59:51.094Z,5.49
2018-12-19T06:02:19.252Z,5.50
2018-12-19T06:04:47.416Z,5.64
2018-12-19T06:07:15.575Z,5.70
2018-12-19T06:09:43.748Z,5.52
2018-12-19T06:12:11.903Z,5.60
2018-12-19T06:14:40.092Z,5.57
2018-12-19T06:17:08.762Z,5.57
2018-12-19T06:19:36.929Z,5.56
2018-12-19T06:22:05.116Z,5.61
2018-12-19T06:24:33.287Z,5.57
2018-12-19T06:27:01.468Z,5.58
2018-12-19T06:29:29.634Z,5.67
2018-12-19T06:31:57.796Z,5.48
2018-12-19T06:34:25.955Z,5.51
2018-12-19T06:36:54.115Z,5.48
2018-12-19T06:39:23.383Z,5.56
2018-12-19T06:41:51.556Z,5.56
2018-12-19T06:44:19.848Z,5.46
2018-12-19T06:46:48.019Z,5.26
2018-12-19T06:49:16.203Z,5.17
2018-12-19T06:51:44.431Z,5.08
2018-12-19T06:54:12.725Z,5.06
2018-12-19T06:56:40.900Z,5.00
2018-12-19T06:59:09.152Z,5.10
2018-12-19T07:01:37.395Z,5.06
2018-12-19T07:04:05.607Z,5.08
2018-12-19T07:06:33.796Z,5.01
2018-12-19T07:09:02.155Z,4.96
2018-12-19T07:11:30.407Z,5.08
2018-12-19T07:13:58.572Z,5.08
2018-12-19T07:16:26.920Z,5.00
2018-12-19T07:18:55.076Z,4.99
2018-12-19T07:21:23.251Z,5.01
2018-12-19T07:23:51.492Z,4.91
2018-12-19T07:26:20.523Z,4.90
2018-12-19T07:28:48.683Z,4.96
2018-12-19T07:31:16.839Z,5.01
2018-12-19T07:33:45.043Z,5.08
2018-12-19T07:36:13.211Z,5.08
2018-12-19T07:38:41.397Z,5.13
2018-12-19T07:41:09.555Z,5.02
2018-12-19T07:43:37.743Z,5.04
2018-12-19T07:46:05.903Z,5.15
2018-12-19T07:48:34.342Z,5.09
2018-12-19T07:51:02.504Z,4.97
2018-12-19T07:53:30.750Z,4.91
2018-12-19T07:55:59.890Z,4.94
2018-12-19T07:58:28.132Z,4.92
2018-12-19T08:00:56.297Z,4.97
2018-12-19T08:03:24.580Z,4.97
2018-12-19T08:05:53.018Z,4.91
2018-12-19T08:08:21.179Z,4.96
2018-12-19T08:10:52.167Z,5.07
2018-12-19T08:13:19.507Z,5.08
2018-12-19T08:15:47.752Z,5.12
2018-12-19T08:18:15.956Z,5.16
2018-12-19T08:20:44.108Z,5.12
2018-12-19T08:23:12.339Z,5.05
2018-12-19T08:25:40.506Z,5.16
2018-12-19T08:28:08.695Z,5.23
2018-12-19T08:30:36.860Z,5.05
2018-12-19T08:33:05.255Z,5.09
2018-12-19T08:35:33.415Z,5.16
2018-12-19T08:38:01.956Z,5.18
2018-12-19T08:40:30.260Z,5.29
2018-12-19T08:42:58.435Z,5.36
2018-12-19T08:45:26.884Z,5.31
2018-12-19T08:47:55.099Z,5.22
2018-12-19T08:50:23.295Z,5.23
2018-12-19T08:52:51.552Z,5.28
2018-12-19T08:55:19.731Z,5.23
2018-12-19T08:57:47.895Z,5.22
2018-12-19T09:00:16.151Z,5.21
2018-12-19T09:02:44.312Z,5.25
2018-12-19T09:05:12.554Z,5.32
2018-12-19T09:07:40.707Z,5.46
2018-12-19T09:10:09.516Z,5.41
2018-12-19T09:12:37.680Z,5.50
2018-12-19T09:15:06.745Z,5.63
2018-12-19T09:17:35.831Z,5.59
2018-12-19T09:20:05.331Z,5.60
2018-12-19T09:22:33.654Z,5.53
2018-12-19T09:25:01.955Z,5.48
2018-12-19T09:27:30.321Z,5.52
2018-12-19T09:29:58.488Z,5.58
2018-12-19T09:32:26.650Z,5.58
2018-12-19T09:34:54.816Z,5.56
2018-12-19T09:37:22.968Z,5.57
2018-12-19T09:39:51.184Z,5.51
2018-12-19T09:42:19.346Z,5.63
2018-12-19T09:44:47.536Z,5.62
2018-12-19T09:47:15.700Z,5.58
2018-12-19T09:49:43.868Z,5.73
2018-12-19T09:52:12.164Z,5.76
2018-12-19T09:54:40.356Z,5.71
2018-12-19T09:57:08.521Z,5.79
2018-12-19T09:59:36.686Z,5.79
2018-12-19T10:02:05.365Z,5.83
2018-12-19T10:04:33.539Z,5.72
2018-12-19T10:07:01.708Z,5.68
2018-12-19T10:09:29.891Z,5.79
2018-12-19T10:11:58.079Z,5.72
2018-12-19T10:14:26.236Z,5.74
2018-12-19T10:16:54.544Z,5.75
2018-12-19T10:19:22.695Z,5.68
2018-12-19T10:21:50.976Z,5.74
2018-12-19T10:24:21.126Z,5.86
2018-12-19T10:26:49.376Z,5.78
2018-12-19T10:29:17.544Z,5.81
2018-12-19T10:31:45.706Z,5.87
2018-12-19T10:34:13.864Z,5.94
2018-12-19T10:36:42.074Z,5.99
2018-12-19T10:39:14.923Z,5.94
2018-12-19T10:41:43.139Z,5.92
2018-12-19T10:44:11.626Z,5.95
2018-12-19T10:46:39.883Z,5.97
2018-12-19T10:49:08.040Z,6.03
2018-12-19T10:51:36.211Z,5.92
2018-12-19T10:54:04.632Z,5.98
2018-12-19T10:56:32.801Z,6.00
2018-12-19T10:59:01.098Z,6.02
2018-12-19T11:01:29.344Z,6.05
2018-12-19T11:03:57.535Z,6.01
2018-12-19T11:06:25.783Z,6.13
2018-12-19T11:08:53.988Z,6.13
2018-12-19T11:11:22.146Z,6.16
2018-12-19T11:13:50.492Z,6.11
2018-12-19T11:16:18.649Z,6.13
2018-12-19T11:18:46.824Z,6.19
2018-12-19T11:21:14.976Z,6.24
2018-12-19T11:23:43.147Z,6.20
2018-12-19T11:26:11.307Z,6.31
2018-12-19T11:28:39.479Z,6.30
2018-12-19T11:31:07.660Z,6.28
2018-12-19T11:33:35.835Z,6.32
2018-12-19T11:36:04.211Z,6.27
2018-12-19T11:38:32.391Z,6.33
2018-12-19T11:41:00.544Z,6.34
2018-12-19T11:43:28.781Z,6.24
2018-12-19T11:45:56.931Z,6.20
2018-12-19T11:48:25.096Z,6.20
2018-12-19T11:50:53.254Z,6.18
2018-12-19T11:53:21.548Z,6.23
2018-12-19T11:55:49.803Z,6.43
2018-12-19T11:58:17.983Z,6.48
2018-12-19T12:00:46.151Z,6.43
2018-12-19T12:03:14.441Z,6.46
2018-12-19T12:05:42.666Z,6.57
2018-12-19T12:08:10.879Z,6.56
2018-12-19T12:10:39.063Z,6.58
2018-12-19T12:13:07.242Z,6.60
2018-12-19T12:15:35.564Z,6.68
2018-12-19T12:18:03.756Z,6.53
2018-12-19T12:20:31.924Z,6.58
2018-12-19T12:23:00.135Z,6.66
2018-12-19T12:25:28.399Z,6.67
2018-12-19T12:27:56.587Z,6.54
2018-12-19T12:30:24.876Z,6.57
2018-12-19T12:32:53.149Z,6.57
2018-12-19T12:35:21.332Z,6.44
2018-12-19T12:37:50.109Z,6.38
2018-12-19T12:40:18.361Z,6.41
2018-12-19T12:42:46.663Z,6.44
2018-12-19T12:45:15.136Z,6.38
2018-12-19T12:47:43.383Z,6.53
2018-12-19T12:50:11.610Z,6.53
2018-12-19T12:52:39.840Z,6.55
2018-12-19T12:55:08.509Z,6.57
2018-12-19T12:57:37.689Z,6.53
2018-12-19T13:00:07.117Z,6.59
2018-12-19T13:02:35.340Z,6.57
2018-12-19T13:05:04.088Z,6.64
2018-12-19T13:07:32.249Z,6.62
2018-12-19T13:10:00.455Z,6.51
2018-12-19T13:12:29.886Z,6.49
2018-12-19T13:14:58.167Z,6.51
2018-12-19T13:17:26.740Z,6.66
2018-12-19T13:19:55.020Z,6.63
2018-12-19T13:22:23.250Z,6.62
2018-12-19T13:24:51.476Z,6.70
2018-12-19T13:27:19.785Z,6.67
2018-12-19T13:29:47.939Z,6.63
2018-12-19T13:32:16.492Z,6.61
2018-12-19T13:34:44.832Z,6.60
2018-12-19T13:37:13.178Z,6.62
2018-12-19T13:39:41.339Z,6.56
2018-12-19T13:42:09.537Z,6.58
2018-12-19T13:44:37.692Z,6.60
2018-12-19T13:47:05.915Z,6.65
2018-12-19T13:49:34.091Z,6.69
2018-12-19T13:52:02.324Z,6.76
2018-12-19T13:54:30.545Z,6.73
2018-12-19T13:56:58.785Z,6.74
2018-12-19T13:59:26.963Z,6.85
2018-12-19T14:01:55.224Z,6.66
2018-12-19T14:04:23.379Z,6.67
2018-12-19T14:06:51.744Z,6.69
2018-12-19T14:09:19.949Z,6.71
2018-12-19T14:11:48.185Z,6.74
2018-12-19T14:14:16.422Z,6.62
2018-12-19T14:16:44.723Z,6.56
2018-12-19T14:19:12.875Z,6.58
2018-12-19T14:21:41.127Z,6.59
2018-12-19T14:24:09.327Z,6.59
2018-12-19T14:26:37.488Z,6.67
2018-12-19T14:29:05.735Z,6.66
2018-12-19T14:31:34.023Z,6.72
2018-12-19T14:34:02.215Z,6.73
2018-12-19T14:36:30.394Z,6.65
2018-12-19T14:38:58.588Z,6.57
2018-12-19T14:41:26.747Z,6.53
2018-12-19T14:43:55.083Z,6.65
2018-12-19T14:46:23.905Z,6.58
2018-12-19T14:48:52.086Z,6.52
2018-12-19T14:51:20.392Z,6.47
2018-12-19T14:53:48.568Z,6.50
2018-12-19T14:56:16.824Z,6.62
2018-12-19T14:58:44.994Z,6.61
2018-12-19T15:01:13.177Z,6.48
2018-12-19T15:03:41.484Z,6.48
2018-12-19T15:06:10.887Z,6.50
2018-12-19T15:08:39.301Z,6.59
2018-12-19T15:11:07.555Z,6.54
2018-12-19T15:13:35.983Z,6.54
2018-12-19T15:16:04.331Z,6.58
2018-12-19T15:18:32.684Z,6.60
2018-12-19T15:21:00.923Z,6.62
2018-12-19T15:23:29.203Z,6.59
2018-12-19T15:25:57.467Z,6.60
2018-12-19T15:28:25.660Z,6.61
2018-12-19T15:30:54.033Z,6.65
2018-12-19T15:33:22.296Z,6.69
2018-12-19T15:35:50.458Z,6.72
2018-12-19T15:38:18.823Z,6.71
2018-12-19T15:40:46.980Z,6.70
2018-12-19T15:43:15.198Z,6.69
2018-12-19T15:45:43.438Z,6.68
2018-12-19T15:48:11.771Z,6.70
2018-12-19T15:50:39.961Z,6.68
2018-12-19T15:53:08.331Z,6.69
2018-12-19T15:55:36.603Z,6.69
2018-12-19T15:58:09.536Z,6.70
2018-12-19T16:00:38.291Z,6.67
2018-12-19T16:03:07.663Z,6.68
2018-12-19T16:05:35.907Z,6.63
2018-12-19T16:08:04.349Z,6.65
2018-12-19T16:10:32.659Z,6.62
2018-12-19T16:13:01.883Z,6.63
2018-12-19T16:15:30.147Z,6.64
2018-12-19T16:17:58.360Z,6.62
2018-12-19T16:20:26.528Z,6.61
2018-12-19T16:22:54.755Z,6.61
2018-12-19T16:25:22.997Z,6.62
2018-12-19T16:27:51.309Z,6.62
2018-12-19T16:30:19.549Z,6.68
2018-12-19T16:32:47.716Z,6.65
2018-12-19T16:35:16.092Z,6.65
2018-12-19T16:37:44.366Z,6.65
2018-12-19T16:40:12.647Z,6.67
2018-12-19T16:42:46.051Z,6.71
2018-12-19T16:45:11.156Z,6.71
2018-12-19T16:47:39.568Z,6.77
2018-12-19T16:50:08.003Z,6.76
2018-12-19T16:52:36.182Z,6.73
2018-12-19T16:55:04.568Z,6.75
2018-12-19T16:57:32.804Z,6.77
2018-12-19T17:00:01.101Z,6.91
2018-12-19T17:02:29.432Z,6.88
2018-12-19T17:04:57.626Z,6.77
2018-12-19T17:07:25.863Z,6.75
2018-12-19T17:09:54.125Z,6.78
2018-12-19T17:12:22.364Z,6.79
2018-12-19T17:14:50.655Z,6.83
2018-12-19T17:17:18.967Z,6.87
2018-12-19T17:19:47.247Z,6.95
2018-12-19T17:22:15.423Z,6.96
2018-12-19T17:24:43.591Z,6.96
2018-12-19T17:27:11.787Z,6.90
2018-12-19T17:29:39.988Z,6.77
2018-12-19T17:32:08.396Z,6.74
2018-12-19T17:34:36.724Z,6.72
2018-12-19T17:37:04.943Z,6.69
2018-12-19T17:39:33.117Z,6.67
2018-12-19T17:42:01.320Z,6.67
2018-12-19T17:44:29.498Z,6.68
2018-12-19T17:46:57.804Z,6.69
2018-12-19T17:49:26.061Z,6.73
2018-12-19T17:51:54.328Z,6.71
2018-12-19T17:54:22.571Z,6.68
2018-12-19T17:56:50.835Z,6.73
2018-12-19T17:59:19.076Z,6.69
2018-12-19T18:01:47.720Z,6.68
2018-12-19T18:04:16.027Z,6.65
2018-12-19T18:06:44.200Z,6.64
2018-12-19T18:09:12.484Z,6.67
2018-12-19T18:11:40.748Z,6.58
2018-12-19T18:14:09.384Z,6.55
2018-12-19T18:16:37.729Z,6.59
2018-12-19T18:19:05.999Z,6.58
2018-12-19T18:21:34.343Z,6.64
2018-12-19T18:24:02.613Z,6.63
2018-12-19T18:26:30.831Z,6.59
2018-12-19T18:28:59.120Z,6.62
2018-12-19T18:31:27.395Z,6.59
2018-12-19T18:33:55.603Z,6.61
2018-12-19T18:36:23.764Z,6.67
2018-12-19T18:38:51.995Z,6.72
2018-12-19T18:41:20.292Z,6.74
2018-12-19T18:43:48.457Z,6.74
2018-12-19T18:46:16.756Z,6.76
2018-12-19T18:48:45.020Z,6.73
2018-12-19T18:51:13.307Z,6.71
2018-12-19T18:53:41.467Z,6.72
2018-12-19T18:56:09.632Z,6.73
2018-12-19T18:58:37.794Z,6.77
2018-12-19T19:01:06.170Z,6.84
2018-12-19T19:03:34.466Z,6.82
2018-12-19T19:06:02.971Z,6.76
2018-12-19T19:08:31.231Z,6.71
2018-12-19T19:10:59.529Z,6.72
2018-12-19T19:13:27.685Z,6.76
2018-12-19T19:15:55.871Z,6.80
2018-12-19T19:18:24.096Z,6.85
2018-12-19T19:20:52.264Z,6.82
2018-12-19T19:23:20.444Z,6.82
2018-12-19T19:25:48.698Z,6.82
2018-12-19T19:28:16.895Z,6.86
2018-12-19T19:30:45.347Z,6.88
2018-12-19T19:33:13.601Z,6.88
2018-12-19T19:35:41.886Z,6.96
2018-12-19T19:38:10.176Z,6.97
2018-12-19T19:40:38.339Z,6.89
2018-12-19T19:43:06.644Z,6.80
2018-12-19T19:45:34.988Z,6.83
2018-12-19T19:48:03.143Z,6.83
2018-12-19T19:50:31.440Z,6.89
2018-12-19T19:52:59.623Z,6.87
2018-12-19T19:55:27.891Z,6.89
2018-12-19T19:57:56.067Z,6.93
2018-12-19T20:00:30.311Z,6.84
2018-12-19T20:02:58.607Z,6.81
2018-12-19T20:05:26.837Z,6.78
2018-12-19T20:07:55.023Z,6.79
2018-12-19T20:10:23.269Z,6.77
2018-12-19T20:12:51.439Z,6.79
2018-12-19T20:15:19.602Z,6.70
2018-12-19T20:17:47.931Z,6.73
2018-12-19T20:20:16.610Z,6.77
2018-12-19T20:22:45.086Z,6.76
2018-12-19T20:25:13.259Z,6.76
2018-12-19T20:27:41.521Z,6.74
2018-12-19T20:30:11.570Z,6.79
2018-12-19T20:32:39.747Z,6.73
2018-12-19T20:35:08.232Z,6.77
2018-12-19T20:37:36.396Z,6.78
2018-12-19T20:40:05.392Z,6.77
2018-12-19T20:42:33.556Z,6.82
2018-12-19T20:45:01.772Z,6.81
2018-12-19T20:47:29.939Z,6.80
2018-12-19T20:49:58.136Z,6.71
2018-12-19T20:52:26.370Z,6.77
2018-12-19T20:54:54.535Z,6.80
2018-12-19T20:57:22.815Z,6.80
2018-12-19T20:59:51.089Z,6.73
2018-12-19T21:02:19.496Z,6.68
2018-12-19T21:04:47.653Z,6.79
2018-12-19T21:07:15.812Z,6.74
2018-12-19T21:09:44.268Z,6.80
2018-12-19T21:12:12.431Z,6.72
2018-12-19T21:14:40.803Z,6.73
2018-12-19T21:17:14.283Z,6.68
2018-12-19T21:19:42.451Z,6.73
2018-12-19T21:22:11.218Z,6.66
2018-12-19T21:24:39.477Z,6.65
2018-12-19T21:27:07.768Z,6.67
2018-12-19T21:29:36.068Z,6.68
2018-12-19T21:32:04.231Z,6.54
2018-12-19T21:34:32.408Z,6.53
2018-12-19T21:37:02.108Z,6.58
2018-12-19T21:39:30.765Z,6.64
2018-12-19T21:41:58.975Z,6.56
2018-12-19T21:44:27.368Z,6.63
2018-12-19T21:46:55.626Z,6.66
2018-12-19T21:49:24.008Z,6.57
2018-12-19T21:51:52.175Z,6.60
2018-12-19T21:54:20.625Z,6.58
2018-12-19T21:56:48.873Z,6.60
2018-12-19T21:59:17.194Z,6.54
2018-12-19T22:01:45.348Z,6.47
2018-12-19T22:04:13.642Z,6.50
2018-12-19T22:06:41.980Z,6.39
2018-12-19T22:09:10.459Z,6.40
2018-12-19T22:11:38.718Z,6.48
2018-12-19T22:14:06.996Z,6.51
2018-12-19T22:16:40.395Z,6.54
2018-12-19T22:19:08.596Z,6.51
2018-12-19T22:21:36.916Z,6.64
2018-12-19T22:24:05.115Z,6.64
2018-12-19T22:26:33.451Z,6.55
2018-12-19T22:29:01.617Z,6.48
2018-12-19T22:31:29.926Z,6.50
2018-12-19T22:33:58.347Z,6.47
2018-12-19T22:36:26.900Z,6.49
2018-12-19T22:38:55.205Z,6.58
2018-12-19T22:41:23.370Z,6.54
2018-12-19T22:43:51.530Z,6.49
2018-12-19T22:46:19.735Z,6.53
2018-12-19T22:48:47.988Z,6.50
2018-12-19T22:51:16.229Z,6.49
2018-12-19T22:53:44.533Z,6.53
2018-12-19T22:56:12.771Z,6.65
2018-12-19T22:58:41.054Z,6.65
2018-12-19T23:01:14.766Z,6.70
2018-12-19T23:03:48.440Z,6.69
2018-12-19T23:06:16.655Z,6.68
2018-12-19T23:08:45.155Z,6.76
2018-12-19T23:11:13.545Z,6.74
2018-12-19T23:13:41.977Z,6.75
2018-12-19T23:16:10.304Z,6.77
2018-12-19T23:18:38.725Z,6.78
2018-12-19T23:21:07.087Z,6.70
2018-12-19T23:23:35.239Z,6.69
2018-12-19T23:26:03.859Z,6.72
2018-12-19T23:28:32.086Z,6.74
2018-12-19T23:31:00.493Z,6.82
2018-12-19T23:33:28.647Z,6.83
2018-12-19T23:35:57.160Z,6.86
2018-12-19T23:38:25.522Z,6.80
2018-12-19T23:40:53.887Z,6.84
2018-12-19T23:43:22.359Z,6.87
2018-12-19T23:45:50.710Z,6.88
2018-12-19T23:48:19.070Z,6.88
2018-12-19T23:50:47.391Z,6.84
2018-12-19T23:53:15.757Z,6.87
2018-12-19T23:55:44.233Z,6.94
2018-12-19T23:58:12.645Z,6.93
